Mc Allen Miller International Airport Mc Allen US
ICAO: KMFE
IATA: MFE
Category: Medium
Scheduled Services: Yes

Elevation: 107 ft
TransAlt. 18000 ft.

Airport Communications:
VALLEY APP/DEP:121
ASOS:128.5
ATIS:128.5
CTAF:118.5
GND:121.8
SAN ANGELO RDO:122.2
TWR:118.5
UNICOM:122.95

KMFE Zoom In..

Runways:

(A) RW 13 length 7120 ft width 150 ft
ILS 111.70 / hdg 134

(B) RW 18 length 2638 ft width 60 ft
---- / hdg 182

(C) RW 31 length 7120 ft width 150 ft
ILS 111.70 / hdg 314

(D) RW 36 length 2638 ft width 60 ft
---- / hdg 2

Location; KMFE
Day. 19 / Time. 19.53 Zulu
* Altimeter: 29.87
* Temperature: 39° c. 102.2°f.
* Wind from: 140° Speed 18 kn with Gusts up to 23 kn.
Dewpoint: 21° c.
Visibility: 10 Statute Miles.
Clouds: Clear (automated report).

KMFE 191953Z 14018G23KT 10SM CLR 39/21 A2987 RMK AO2 SLP111 T03890206


Wind From 140°
Speed 18 kn.

 
 
jpsmedia.com for Web Design worldairports.se 2018   terms of use